sensor_id;sensor_type;location;lat;lon;timestamp;pressure;altitude;pressure_sealevel;temperature;humidity
70900;BME280;67902;52.154;5.430;2023-03-15T00:01:12;101249.00;;;1.94;87.50
70900;BME280;67902;52.154;5.430;2023-03-15T00:03:41;101253.03;;;1.90;87.52
70900;BME280;67902;52.154;5.430;2023-03-15T00:06:08;101249.59;;;1.82;87.27
70900;BME280;67902;52.154;5.430;2023-03-15T00:08:34;101244.66;;;1.70;87.56
70900;BME280;67902;52.154;5.430;2023-03-15T00:11:01;101249.72;;;1.65;88.11
70900;BME280;67902;52.154;5.430;2023-03-15T00:13:28;101242.06;;;1.62;88.29
70900;BME280;67902;52.154;5.430;2023-03-15T00:15:59;101251.25;;;1.60;88.52
70900;BME280;67902;52.154;5.430;2023-03-15T00:18:26;101247.44;;;1.54;88.19
70900;BME280;67902;52.154;5.430;2023-03-15T00:20:53;101260.94;;;1.53;88.63
70900;BME280;67902;52.154;5.430;2023-03-15T00:23:20;101252.09;;;1.52;88.88
70900;BME280;67902;52.154;5.430;2023-03-15T00:25:49;101250.63;;;1.50;88.25
70900;BME280;67902;52.154;5.430;2023-03-15T00:28:16;101250.63;;;1.50;88.75
70900;BME280;67902;52.154;5.430;2023-03-15T00:30:42;101256.28;;;1.47;88.70
70900;BME280;67902;52.154;5.430;2023-03-15T00:33:13;101255.00;;;1.43;89.11
70900;BME280;67902;52.154;5.430;2023-03-15T00:35:42;101257.81;;;1.41;89.13
70900;BME280;67902;52.154;5.430;2023-03-15T00:38:10;101260.00;;;1.46;89.10
70900;BME280;67902;52.154;5.430;2023-03-15T00:40:37;101256.66;;;1.44;89.03
70900;BME280;67902;52.154;5.430;2023-03-15T00:43:03;101260.00;;;1.46;89.85
70900;BME280;67902;52.154;5.430;2023-03-15T00:45:30;101266.13;;;1.46;89.17
70900;BME280;67902;52.154;5.430;2023-03-15T00:47:57;101261.47;;;1.48;90.07
70900;BME280;67902;52.154;5.430;2023-03-15T00:50:23;101266.31;;;1.45;90.13
70900;BME280;67902;52.154;5.430;2023-03-15T00:52:50;101273.16;;;1.47;89.97
70900;BME280;67902;52.154;5.430;2023-03-15T00:55:18;101271.13;;;1.49;89.47
70900;BME280;67902;52.154;5.430;2023-03-15T00:57:45;101270.13;;;1.50;90.24
70900;BME280;67902;52.154;5.430;2023-03-15T01:00:15;101273.63;;;1.51;89.85
70900;BME280;67902;52.154;5.430;2023-03-15T01:02:45;101284.47;;;1.49;90.52
70900;BME280;67902;52.154;5.430;2023-03-15T01:05:12;101282.16;;;1.46;90.30
70900;BME280;67902;52.154;5.430;2023-03-15T01:07:39;101281.69;;;1.43;90.25
70900;BME280;67902;52.154;5.430;2023-03-15T01:10:06;101296.00;;;1.42;89.70
70900;BME280;67902;52.154;5.430;2023-03-15T01:12:33;101292.34;;;1.43;90.04
70900;BME280;67902;52.154;5.430;2023-03-15T01:15:01;101303.50;;;1.46;90.44
70900;BME280;67902;52.154;5.430;2023-03-15T01:17:28;101295.31;;;1.48;90.10
70900;BME280;67902;52.154;5.430;2023-03-15T01:19:55;101303.97;;;1.50;90.54
70900;BME280;67902;52.154;5.430;2023-03-15T01:22:21;101303.97;;;1.50;90.54
70900;BME280;67902;52.154;5.430;2023-03-15T01:24:48;101303.97;;;1.50;89.87
70900;BME280;67902;52.154;5.430;2023-03-15T01:27:14;101312.19;;;1.48;89.75
70900;BME280;67902;52.154;5.430;2023-03-15T01:29:41;101309.66;;;1.47;90.48
70900;BME280;67902;52.154;5.430;2023-03-15T01:32:07;101309.84;;;1.45;90.34
70900;BME280;67902;52.154;5.430;2023-03-15T01:34:35;101309.84;;;1.45;90.75
70900;BME280;67902;52.154;5.430;2023-03-15T01:37:01;101316.38;;;1.43;89.91
70900;BME280;67902;52.154;5.430;2023-03-15T01:39:29;101321.03;;;1.41;90.76
70900;BME280;67902;52.154;5.430;2023-03-15T01:41:56;101323.69;;;1.41;91.13
70900;BME280;67902;52.154;5.430;2023-03-15T01:44:23;101327.72;;;1.37;90.73
70900;BME280;67902;52.154;5.430;2023-03-15T01:46:49;101325.41;;;1.34;90.49
70900;BME280;67902;52.154;5.430;2023-03-15T01:49:24;101326.72;;;1.30;91.21
70900;BME280;67902;52.154;5.430;2023-03-15T01:54:25;101326.91;;;1.28;90.48
70900;BME280;67902;52.154;5.430;2023-03-15T01:57:16;101331.06;;;1.31;91.36
70900;BME280;67902;52.154;5.430;2023-03-15T02:00:06;101323.72;;;1.33;90.88
70900;BME280;67902;52.154;5.430;2023-03-15T02:02:43;101334.25;;;1.34;90.53
70900;BME280;67902;52.154;5.430;2023-03-15T02:05:17;101334.06;;;1.36;90.69
70900;BME280;67902;52.154;5.430;2023-03-15T02:07:45;101338.72;;;1.34;91.01
70900;BME280;67902;52.154;5.430;2023-03-15T02:10:19;101335.72;;;1.37;91.03
70900;BME280;67902;52.154;5.430;2023-03-15T02:12:50;101341.41;;;1.34;90.53
70900;BME280;67902;52.154;5.430;2023-03-15T02:15:17;101342.59;;;1.31;91.21
70900;BME280;67902;52.154;5.430;2023-03-15T02:17:45;101341.41;;;1.34;91.11
70900;BME280;67902;52.154;5.430;2023-03-15T02:23:01;101346.09;;;1.32;90.50
70900;BME280;67902;52.154;5.430;2023-03-15T02:25:38;101349.09;;;1.29;90.65
70900;BME280;67902;52.154;5.430;2023-03-15T02:28:11;101352.25;;;1.24;90.79
70900;BME280;67902;52.154;5.430;2023-03-15T02:30:38;101365.47;;;1.17;91.51
70900;BME280;67902;52.154;5.430;2023-03-15T02:33:11;101366.44;;;1.16;91.32
70900;BME280;67902;52.154;5.430;2023-03-15T02:35:39;101362.94;;;1.16;91.69
70900;BME280;67902;52.154;5.430;2023-03-15T02:38:06;101366.78;;;1.13;91.02
70900;BME280;67902;52.154;5.430;2023-03-15T02:40:32;101368.16;;;1.09;91.03
70900;BME280;67902;52.154;5.430;2023-03-15T02:43:13;101380.13;;;1.05;91.76
70900;BME280;67902;52.154;5.430;2023-03-15T02:45:41;101385.47;;;1.05;91.60
70900;BME280;67902;52.154;5.430;2023-03-15T02:48:08;101379.81;;;1.00;91.79
70900;BME280;67902;52.154;5.430;2023-03-15T02:50:36;101389.00;;;0.98;91.82
70900;BME280;67902;52.154;5.430;2023-03-15T02:53:02;101392.66;;;0.97;91.34
70900;BME280;67902;52.154;5.430;2023-03-15T02:55:29;101398.81;;;0.97;91.67
70900;BME280;67902;52.154;5.430;2023-03-15T02:57:59;101401.16;;;0.92;91.80
70900;BME280;67902;52.154;5.430;2023-03-15T03:00:25;101406.81;;;0.89;92.07
70900;BME280;67902;52.154;5.430;2023-03-15T03:02:52;101405.66;;;0.92;91.82
70900;BME280;67902;52.154;5.430;2023-03-15T03:05:18;101420.81;;;0.83;92.39
70900;BME280;67902;52.154;5.430;2023-03-15T03:07:45;101415.63;;;0.82;92.25
70900;BME280;67902;52.154;5.430;2023-03-15T03:10:14;101424.31;;;0.76;92.83
70900;BME280;67902;52.154;5.430;2023-03-15T03:12:41;101430.13;;;0.71;92.49
70900;BME280;67902;52.154;5.430;2023-03-15T03:15:08;101432.97;;;0.70;92.70
70900;BME280;67902;52.154;5.430;2023-03-15T03:17:35;101438.78;;;0.65;92.74
70900;BME280;67902;52.154;5.430;2023-03-15T03:20:05;101444.81;;;0.67;92.15
70900;BME280;67902;52.154;5.430;2023-03-15T03:22:36;101449.44;;;0.65;93.14
70900;BME280;67902;52.154;5.430;2023-03-15T03:25:04;101454.09;;;0.55;92.69
70900;BME280;67902;52.154;5.430;2023-03-15T03:27:31;101458.56;;;0.46;92.18
70900;BME280;67902;52.154;5.430;2023-03-15T03:30:07;101459.94;;;0.50;92.31
70900;BME280;67902;52.154;5.430;2023-03-15T03:32:34;101459.44;;;0.55;92.62
70900;BME280;67902;52.154;5.430;2023-03-15T03:35:01;101457.28;;;0.58;93.09
70900;BME280;67902;52.154;5.430;2023-03-15T03:37:27;101467.09;;;0.58;92.71
70900;BME280;67902;52.154;5.430;2023-03-15T03:39:56;101477.44;;;0.61;93.20
70900;BME280;67902;52.154;5.430;2023-03-15T03:42:23;101479.06;;;0.62;93.40
70900;BME280;67902;52.154;5.430;2023-03-15T03:44:49;101484.72;;;0.59;93.12
70900;BME280;67902;52.154;5.430;2023-03-15T03:47:16;101486.72;;;0.57;93.35
70900;BME280;67902;52.154;5.430;2023-03-15T03:49:42;101491.72;;;0.60;93.72
70900;BME280;67902;52.154;5.430;2023-03-15T03:52:09;101493.75;;;0.58;93.78
70900;BME280;67902;52.154;5.430;2023-03-15T03:54:35;101491.06;;;0.58;93.07
70900;BME280;67902;52.154;5.430;2023-03-15T03:57:02;101493.41;;;0.53;93.13
70900;BME280;67902;52.154;5.430;2023-03-15T03:59:28;101493.72;;;0.50;93.73
70900;BME280;67902;52.154;5.430;2023-03-15T04:01:55;101494.03;;;0.47;93.59
70900;BME280;67902;52.154;5.430;2023-03-15T04:04:21;101505.69;;;0.46;93.88
70900;BME280;67902;52.154;5.430;2023-03-15T04:06:47;101513.88;;;0.52;94.04
70900;BME280;67902;52.154;5.430;2023-03-15T04:09:16;101513.72;;;0.62;93.65
70900;BME280;67902;52.154;5.430;2023-03-15T04:11:42;101509.41;;;0.69;94.18
70900;BME280;67902;52.154;5.430;2023-03-15T04:14:10;101507.25;;;0.73;93.53
70900;BME280;67902;52.154;5.430;2023-03-15T04:16:37;101515.91;;;0.75;94.23
70900;BME280;67902;52.154;5.430;2023-03-15T04:19:04;101530.22;;;0.74;94.22
70900;BME280;67902;52.154;5.430;2023-03-15T04:21:31;101528.91;;;0.70;93.77
70900;BME280;67902;52.154;5.430;2023-03-15T04:23:58;101533.06;;;0.64;94.09
70900;BME280;67902;52.154;5.430;2023-03-15T04:26:29;101537.69;;;0.62;93.82
70900;BME280;67902;52.154;5.430;2023-03-15T04:28:57;101539.38;;;0.63;94.40
70900;BME280;67902;52.154;5.430;2023-03-15T04:31:24;101542.22;;;0.62;93.69
70900;BME280;67902;52.154;5.430;2023-03-15T04:33:54;101547.38;;;0.63;94.41
70900;BME280;67902;52.154;5.430;2023-03-15T04:36:22;101552.19;;;0.59;94.34
70900;BME280;67902;52.154;5.430;2023-03-15T04:38:49;101554.34;;;0.56;94.51
70900;BME280;67902;52.154;5.430;2023-03-15T04:41:16;101558.66;;;0.49;94.26
70900;BME280;67902;52.154;5.430;2023-03-15T04:43:43;101558.97;;;0.46;94.03
70900;BME280;67902;52.154;5.430;2023-03-15T04:46:10;101560.97;;;0.44;93.86
70900;BME280;67902;52.154;5.430;2023-03-15T04:48:36;101565.63;;;0.42;94.49
70900;BME280;67902;52.154;5.430;2023-03-15T04:51:03;101577.25;;;0.41;93.80
70900;BME280;67902;52.154;5.430;2023-03-15T04:53:30;101573.94;;;0.39;94.64
70900;BME280;67902;52.154;5.430;2023-03-15T04:55:56;101578.75;;;0.35;94.82
70900;BME280;67902;52.154;5.430;2023-03-15T04:58:23;101580.41;;;0.36;94.73
70900;BME280;67902;52.154;5.430;2023-03-15T05:00:51;101583.84;;;0.29;94.40
70900;BME280;67902;52.154;5.430;2023-03-15T05:03:19;101586.53;;;0.29;93.93
70900;BME280;67902;52.154;5.430;2023-03-15T05:05:46;101592.84;;;0.28;94.54
70900;BME280;67902;52.154;5.430;2023-03-15T05:08:12;101598.50;;;0.25;94.01
70900;BME280;67902;52.154;5.430;2023-03-15T05:10:38;101603.81;;;0.25;94.11
70900;BME280;67902;52.154;5.430;2023-03-15T05:13:05;101601.78;;;0.19;94.91
70900;BME280;67902;52.154;5.430;2023-03-15T05:15:31;101606.09;;;0.20;94.64
70900;BME280;67902;52.154;5.430;2023-03-15T05:17:58;101608.75;;;0.20;95.04
70900;BME280;67902;52.154;5.430;2023-03-15T05:20:25;101619.28;;;0.21;94.48
70900;BME280;67902;52.154;5.430;2023-03-15T05:22:51;101632.72;;;0.20;95.10
70900;BME280;67902;52.154;5.430;2023-03-15T05:25:18;101639.75;;;0.21;94.14
70900;BME280;67902;52.154;5.430;2023-03-15T05:27:45;101639.38;;;0.16;94.46
70900;BME280;67902;52.154;5.430;2023-03-15T05:30:12;101636.84;;;0.14;94.48
70900;BME280;67902;52.154;5.430;2023-03-15T05:32:42;101643.72;;;0.17;94.25
70900;BME280;67902;52.154;5.430;2023-03-15T05:35:11;101652.38;;;0.19;94.28
70900;BME280;67902;52.154;5.430;2023-03-15T05:37:38;101652.06;;;0.22;94.23
70900;BME280;67902;52.154;5.430;2023-03-15T05:40:05;101643.78;;;0.25;95.18
70900;BME280;67902;52.154;5.430;2023-03-15T05:42:33;101653.09;;;0.29;94.65
70900;BME280;67902;52.154;5.430;2023-03-15T05:45:00;101650.28;;;0.30;94.57
70900;BME280;67902;52.154;5.430;2023-03-15T05:47:26;101657.59;;;0.28;94.60
70900;BME280;67902;52.154;5.430;2023-03-15T05:49:53;101651.81;;;0.33;94.19
70900;BME280;67902;52.154;5.430;2023-03-15T05:52:19;101661.13;;;0.37;94.92
70900;BME280;67902;52.154;5.430;2023-03-15T05:54:46;101660.16;;;0.38;94.64
70900;BME280;67902;52.154;5.430;2023-03-15T05:57:12;101666.47;;;0.37;95.21
70900;BME280;67902;52.154;5.430;2023-03-15T05:59:39;101674.63;;;0.35;95.03
70900;BME280;67902;52.154;5.430;2023-03-15T06:02:05;101683.81;;;0.41;94.58
70900;BME280;67902;52.154;5.430;2023-03-15T06:04:32;101691.13;;;0.39;94.53
70900;BME280;67902;52.154;5.430;2023-03-15T06:06:58;101697.28;;;0.39;94.73
70900;BME280;67902;52.154;5.430;2023-03-15T06:09:25;101696.47;;;0.39;94.49
70900;BME280;67902;52.154;5.430;2023-03-15T06:11:51;101708.75;;;0.40;95.41
70900;BME280;67902;52.154;5.430;2023-03-15T06:14:18;101706.63;;;0.43;95.23
70900;BME280;67902;52.154;5.430;2023-03-15T06:16:45;101708.16;;;0.46;95.57
70900;BME280;67902;52.154;5.430;2023-03-15T06:19:12;101722.84;;;0.50;95.14
70900;BME280;67902;52.154;5.430;2023-03-15T06:21:39;101726.84;;;0.54;95.29
70900;BME280;67902;52.154;5.430;2023-03-15T06:24:05;101727.28;;;0.67;95.70
70900;BME280;67902;52.154;5.430;2023-03-15T06:26:32;101723.34;;;0.87;95.59
70900;BME280;67902;52.154;5.430;2023-03-15T06:28:58;101728.47;;;1.06;95.01
70900;BME280;67902;52.154;5.430;2023-03-15T06:31:25;101724.03;;;1.23;94.81
70900;BME280;67902;52.154;5.430;2023-03-15T06:33:51;101735.09;;;1.44;94.84
70900;BME280;67902;52.154;5.430;2023-03-15T06:36:17;101737.44;;;1.47;93.96
70900;BME280;67902;52.154;5.430;2023-03-15T06:38:44;101745.59;;;1.46;93.92
70900;BME280;67902;52.154;5.430;2023-03-15T06:41:10;101752.44;;;1.48;93.28
70900;BME280;67902;52.154;5.430;2023-03-15T06:43:40;101747.28;;;1.55;93.31
70900;BME280;67902;52.154;5.430;2023-03-15T06:46:07;101741.31;;;1.77;93.24
70900;BME280;67902;52.154;5.430;2023-03-15T06:48:33;101753.53;;;1.96;93.07
70900;BME280;67902;52.154;5.430;2023-03-15T06:51:00;101766.06;;;2.03;92.21
70900;BME280;67902;52.154;5.430;2023-03-15T06:53:26;101760.72;;;2.19;92.51
70900;BME280;67902;52.154;5.430;2023-03-15T06:55:53;101764.06;;;2.38;91.91
70900;BME280;67902;52.154;5.430;2023-03-15T06:58:19;101763.38;;;2.60;90.47
70900;BME280;67902;52.154;5.430;2023-03-15T07:00:45;101770.06;;;2.64;89.05
70900;BME280;67902;52.154;5.430;2023-03-15T07:03:13;101774.69;;;2.86;89.39
70900;BME280;67902;52.154;5.430;2023-03-15T07:05:40;101789.00;;;3.01;88.15
70900;BME280;67902;52.154;5.430;2023-03-15T07:08:07;101797.91;;;2.85;87.90
70900;BME280;67902;52.154;5.430;2023-03-15T07:10:33;101797.94;;;2.61;88.54
70900;BME280;67902;52.154;5.430;2023-03-15T07:12:59;101790.44;;;2.57;89.27
70900;BME280;67902;52.154;5.430;2023-03-15T07:15:26;101793.06;;;2.81;89.06
70900;BME280;67902;52.154;5.430;2023-03-15T07:17:53;101799.38;;;3.04;88.42
70900;BME280;67902;52.154;5.430;2023-03-15T07:20:20;101803.03;;;3.19;87.55
70900;BME280;67902;52.154;5.430;2023-03-15T07:22:46;101799.75;;;3.40;87.00
70900;BME280;67902;52.154;5.430;2023-03-15T07:25:13;101800.53;;;3.48;86.54
70900;BME280;67902;52.154;5.430;2023-03-15T07:27:49;101807.75;;;3.48;86.27
70900;BME280;67902;52.154;5.430;2023-03-15T07:30:16;101814.59;;;4.12;85.91
70900;BME280;67902;52.154;5.430;2023-03-15T07:32:43;101817.28;;;4.57;83.34
70900;BME280;67902;52.154;5.430;2023-03-15T07:35:10;101821.81;;;4.34;82.44
70900;BME280;67902;52.154;5.430;2023-03-15T07:37:38;101823.91;;;4.61;82.44
70900;BME280;67902;52.154;5.430;2023-03-15T07:40:10;101828.78;;;5.98;80.17
70900;BME280;67902;52.154;5.430;2023-03-15T07:42:38;101828.72;;;6.76;77.61
70900;BME280;67902;52.154;5.430;2023-03-15T07:45:06;101828.31;;;7.07;74.50
70900;BME280;67902;52.154;5.430;2023-03-15T07:47:33;101828.03;;;6.46;74.67
70900;BME280;67902;52.154;5.430;2023-03-15T07:49:59;101841.34;;;6.12;74.54
70900;BME280;67902;52.154;5.430;2023-03-15T07:52:26;101843.25;;;5.67;75.25
70900;BME280;67902;52.154;5.430;2023-03-15T07:54:53;101847.44;;;5.41;75.61
70900;BME280;67902;52.154;5.430;2023-03-15T07:57:19;101850.13;;;5.55;75.59
70900;BME280;67902;52.154;5.430;2023-03-15T07:59:46;101854.84;;;5.68;75.22
70900;BME280;67902;52.154;5.430;2023-03-15T08:02:13;101852.34;;;5.66;75.00
70900;BME280;67902;52.154;5.430;2023-03-15T08:04:40;101860.63;;;6.01;75.63
70900;BME280;67902;52.154;5.430;2023-03-15T08:07:06;101864.75;;;5.97;75.36
70900;BME280;67902;52.154;5.430;2023-03-15T08:09:33;101866.09;;;6.07;74.63
70900;BME280;67902;52.154;5.430;2023-03-15T08:12:00;101877.41;;;6.17;75.12
70900;BME280;67902;52.154;5.430;2023-03-15T08:14:27;101875.38;;;6.62;74.53
70900;BME280;67902;52.154;5.430;2023-03-15T08:16:54;101872.53;;;7.53;72.00
70900;BME280;67902;52.154;5.430;2023-03-15T08:19:20;101873.00;;;8.04;69.80
70900;BME280;67902;52.154;5.430;2023-03-15T08:21:47;101873.59;;;8.73;68.69
70900;BME280;67902;52.154;5.430;2023-03-15T08:24:14;101877.13;;;9.19;66.73
70900;BME280;67902;52.154;5.430;2023-03-15T08:26:40;101876.88;;;9.54;65.07
70900;BME280;67902;52.154;5.430;2023-03-15T08:29:10;101871.03;;;9.44;64.69
70900;BME280;67902;52.154;5.430;2023-03-15T08:31:36;101886.66;;;9.35;63.96
70900;BME280;67902;52.154;5.430;2023-03-15T08:34:03;101889.19;;;9.94;63.48
70900;BME280;67902;52.154;5.430;2023-03-15T08:36:30;101888.69;;;10.30;61.46
70900;BME280;67902;52.154;5.430;2023-03-15T08:38:57;101894.84;;;10.43;61.22
70900;BME280;67902;52.154;5.430;2023-03-15T08:41:24;101899.88;;;10.71;59.63
70900;BME280;67902;52.154;5.430;2023-03-15T08:43:50;101896.91;;;11.04;59.64
70900;BME280;67902;52.154;5.430;2023-03-15T08:46:17;101905.38;;;11.14;59.09
70900;BME280;67902;52.154;5.430;2023-03-15T08:48:46;101903.88;;;11.61;59.57
70900;BME280;67902;52.154;5.430;2023-03-15T08:51:13;101913.19;;;12.26;55.04
70900;BME280;67902;52.154;5.430;2023-03-15T08:53:40;101908.06;;;12.18;56.06
70900;BME280;67902;52.154;5.430;2023-03-15T08:56:06;101913.63;;;12.23;54.75
70900;BME280;67902;52.154;5.430;2023-03-15T08:58:34;101910.53;;;13.44;56.37
70900;BME280;67902;52.154;5.430;2023-03-15T09:01:01;101910.19;;;13.40;51.58
70900;BME280;67902;52.154;5.430;2023-03-15T09:03:27;101913.19;;;14.02;50.49
70900;BME280;67902;52.154;5.430;2023-03-15T09:05:56;101909.88;;;14.00;52.05
70900;BME280;67902;52.154;5.430;2023-03-15T09:08:23;101917.56;;;14.03;49.36
70900;BME280;67902;52.154;5.430;2023-03-15T09:10:57;101915.97;;;14.86;49.81
70900;BME280;67902;52.154;5.430;2023-03-15T09:13:24;101913.81;;;15.38;46.49
70900;BME280;67902;52.154;5.430;2023-03-15T09:15:51;101911.34;;;15.03;47.24
70900;BME280;67902;52.154;5.430;2023-03-15T09:18:19;101910.06;;;15.44;44.52
70900;BME280;67902;52.154;5.430;2023-03-15T09:20:46;101918.75;;;14.91;45.31
70900;BME280;67902;52.154;5.430;2023-03-15T09:23:12;101913.09;;;15.09;44.84
70900;BME280;67902;52.154;5.430;2023-03-15T09:25:39;101920.44;;;14.92;44.97
70900;BME280;67902;52.154;5.430;2023-03-15T09:28:08;101912.84;;;14.66;46.20
70900;BME280;67902;52.154;5.430;2023-03-15T09:30:36;101910.81;;;14.73;45.35
70900;BME280;67902;52.154;5.430;2023-03-15T09:33:03;101903.94;;;15.71;41.82
70900;BME280;67902;52.154;5.430;2023-03-15T09:35:30;101906.78;;;15.26;41.55
70900;BME280;67902;52.154;5.430;2023-03-15T09:37:57;101909.44;;;14.87;43.43
70900;BME280;67902;52.154;5.430;2023-03-15T09:40:42;101917.94;;;15.07;44.20
70900;BME280;67902;52.154;5.430;2023-03-15T09:46:22;101910.50;;;15.53;42.26
70900;BME280;67902;52.154;5.430;2023-03-15T09:49:02;101919.56;;;15.75;40.00
70900;BME280;67902;52.154;5.430;2023-03-15T09:51:38;101915.50;;;15.78;39.15
70900;BME280;67902;52.154;5.430;2023-03-15T09:54:14;101926.66;;;16.14;39.16
70900;BME280;67902;52.154;5.430;2023-03-15T09:56:59;101917.47;;;16.69;39.49
70900;BME280;67902;52.154;5.430;2023-03-15T09:59:36;101927.53;;;16.20;37.62
70900;BME280;67902;52.154;5.430;2023-03-15T10:02:22;101928.44;;;15.82;37.68
70900;BME280;67902;52.154;5.430;2023-03-15T10:04:58;101920.94;;;16.38;38.97
70900;BME280;67902;52.154;5.430;2023-03-15T10:07:26;101922.13;;;16.47;37.93
70900;BME280;67902;52.154;5.430;2023-03-15T10:09:52;101922.13;;;16.47;37.26
70900;BME280;67902;52.154;5.430;2023-03-15T10:12:25;101920.13;;;16.15;37.73
70900;BME280;67902;52.154;5.430;2023-03-15T10:15:37;101917.94;;;16.17;38.79
70900;BME280;67902;52.154;5.430;2023-03-15T10:20:31;101910.44;;;17.42;32.73
70900;BME280;67902;52.154;5.430;2023-03-15T10:25:39;101903.34;;;17.46;33.80
70900;BME280;67902;52.154;5.430;2023-03-15T10:28:12;101899.28;;;18.00;31.52
70900;BME280;67902;52.154;5.430;2023-03-15T10:30:45;101907.59;;;18.20;31.80
70900;BME280;67902;52.154;5.430;2023-03-15T10:33:13;101917.06;;;18.60;29.81
70900;BME280;67902;52.154;5.430;2023-03-15T10:35:41;101908.84;;;18.55;30.13
70900;BME280;67902;52.154;5.430;2023-03-15T10:38:19;101918.06;;;18.33;30.68
70900;BME280;67902;52.154;5.430;2023-03-15T10:40:48;101923.94;;;17.95;32.65
70900;BME280;67902;52.154;5.430;2023-03-15T10:43:24;101927.38;;;17.38;32.95
70900;BME280;67902;52.154;5.430;2023-03-15T10:46:12;101933.88;;;17.59;33.09
70900;BME280;67902;52.154;5.430;2023-03-15T10:48:56;101933.88;;;18.16;32.06
70900;BME280;67902;52.154;5.430;2023-03-15T10:51:31;101939.13;;;18.18;31.42
70900;BME280;67902;52.154;5.430;2023-03-15T10:54:05;101947.25;;;18.55;30.46
70900;BME280;67902;52.154;5.430;2023-03-15T10:56:49;101954.88;;;17.49;31.45
70900;BME280;67902;52.154;5.430;2023-03-15T10:59:22;101953.22;;;18.46;31.13
70900;BME280;67902;52.154;5.430;2023-03-15T11:01:54;101968.47;;;18.22;27.37
70900;BME280;67902;52.154;5.430;2023-03-15T11:04:32;101968.44;;;18.12;27.41
70900;BME280;67902;52.154;5.430;2023-03-15T11:07:01;101965.81;;;18.47;28.69
70900;BME280;67902;52.154;5.430;2023-03-15T11:09:43;101970.38;;;18.99;29.06
70900;BME280;67902;52.154;5.430;2023-03-15T11:12:23;101962.78;;;17.82;27.38
70900;BME280;67902;52.154;5.430;2023-03-15T11:15:13;101986.09;;;15.36;31.72
70900;BME280;67902;52.154;5.430;2023-03-15T11:17:45;101987.78;;;14.92;33.22
70900;BME280;67902;52.154;5.430;2023-03-15T11:20:29;101974.09;;;16.68;32.23
70900;BME280;67902;52.154;5.430;2023-03-15T11:23:05;101979.47;;;17.12;31.87
70900;BME280;67902;52.154;5.430;2023-03-15T11:25:38;101977.13;;;17.57;32.93
70900;BME280;67902;52.154;5.430;2023-03-15T11:28:05;101979.38;;;17.33;29.29
70900;BME280;67902;52.154;5.430;2023-03-15T11:30:37;101973.72;;;17.45;31.62
70900;BME280;67902;52.154;5.430;2023-03-15T11:33:07;101972.69;;;17.88;32.16
70900;BME280;67902;52.154;5.430;2023-03-15T11:35:38;101977.25;;;17.72;29.34
70900;BME280;67902;52.154;5.430;2023-03-15T11:38:27;101978.13;;;17.83;29.28
70900;BME280;67902;52.154;5.430;2023-03-15T11:40:59;101979.00;;;18.45;29.34
70900;BME280;67902;52.154;5.430;2023-03-15T11:43:49;101983.56;;;19.12;28.30
70900;BME280;67902;52.154;5.430;2023-03-15T11:46:26;101971.44;;;18.73;27.46
70900;BME280;67902;52.154;5.430;2023-03-15T11:49:10;101977.63;;;17.91;30.28
70900;BME280;67902;52.154;5.430;2023-03-15T11:51:38;101963.78;;;16.32;30.57
70900;BME280;67902;52.154;5.430;2023-03-15T11:54:13;101970.41;;;15.43;32.70
70900;BME280;67902;52.154;5.430;2023-03-15T11:57:02;101967.69;;;14.81;33.84
70900;BME280;67902;52.154;5.430;2023-03-15T11:59:33;101963.50;;;15.90;32.62
70900;BME280;67902;52.154;5.430;2023-03-15T12:04:45;101967.75;;;17.85;29.73
70900;BME280;67902;52.154;5.430;2023-03-15T12:09:54;101963.72;;;18.65;26.52
70900;BME280;67902;52.154;5.430;2023-03-15T12:20:47;101971.53;;;17.15;29.17
70900;BME280;67902;52.154;5.430;2023-03-15T12:25:54;101978.44;;;17.91;27.92
70900;BME280;67902;52.154;5.430;2023-03-15T12:31:12;101968.13;;;18.71;26.22
70900;BME280;67902;52.154;5.430;2023-03-15T12:33:49;101969.84;;;18.20;27.69
70900;BME280;67902;52.154;5.430;2023-03-15T12:36:33;101972.03;;;18.18;28.61
70900;BME280;67902;52.154;5.430;2023-03-15T12:41:47;101963.81;;;19.10;26.71
70900;BME280;67902;52.154;5.430;2023-03-15T12:54:49;101971.97;;;18.65;26.16
70900;BME280;67902;52.154;5.430;2023-03-15T12:57:20;101968.88;;;17.94;27.34
70900;BME280;67902;52.154;5.430;2023-03-15T12:59:59;101971.94;;;18.03;27.46
70900;BME280;67902;52.154;5.430;2023-03-15T13:16:11;101951.50;;;20.47;25.28
70900;BME280;67902;52.154;5.430;2023-03-15T13:21:25;101942.97;;;20.44;25.62
70900;BME280;67902;52.154;5.430;2023-03-15T13:23:56;101946.75;;;21.02;24.74
70900;BME280;67902;52.154;5.430;2023-03-15T14:09:38;101970.38;;;18.17;26.59
70900;BME280;67902;52.154;5.430;2023-03-15T14:12:17;101968.91;;;18.61;25.76
70900;BME280;67902;52.154;5.430;2023-03-15T14:14:51;101966.47;;;18.65;25.49
70900;BME280;67902;52.154;5.430;2023-03-15T14:17:30;101971.22;;;19.15;25.90
70900;BME280;67902;52.154;5.430;2023-03-15T14:20:06;101964.41;;;19.47;24.47
70900;BME280;67902;52.154;5.430;2023-03-15T14:22:35;101967.69;;;19.49;25.66
70900;BME280;67902;52.154;5.430;2023-03-15T14:25:02;101972.63;;;19.62;24.35
70900;BME280;67902;52.154;5.430;2023-03-15T14:27:29;101983.56;;;19.12;24.52
70900;BME280;67902;52.154;5.430;2023-03-15T14:29:59;101968.13;;;18.61;25.90
70900;BME280;67902;52.154;5.430;2023-03-15T14:32:32;101976.06;;;18.05;25.77
70900;BME280;67902;52.154;5.430;2023-03-15T14:37:44;101981.88;;;18.14;25.59
70900;BME280;67902;52.154;5.430;2023-03-15T14:42:41;101978.31;;;17.34;26.24
70900;BME280;67902;52.154;5.430;2023-03-15T14:45:08;101968.97;;;17.35;26.35
70900;BME280;67902;52.154;5.430;2023-03-15T14:47:41;101968.59;;;17.22;27.44
70900;BME280;67902;52.154;5.430;2023-03-15T14:50:22;101970.06;;;17.03;27.81
70900;BME280;67902;52.154;5.430;2023-03-15T14:52:50;101968.09;;;16.50;27.64
70900;BME280;67902;52.154;5.430;2023-03-15T14:55:19;101970.84;;;16.50;28.51
70900;BME280;67902;52.154;5.430;2023-03-15T14:57:46;101965.81;;;16.90;28.88
70900;BME280;67902;52.154;5.430;2023-03-15T15:00:14;101968.97;;;16.34;30.21